Time;durP1;ratioP1;P1;durP2;ratioP2;P2;SDS_P1;SDS_P2;PMS_P1;PMS_P2;Temp;Humidity;BMP_temperature;BMP_pressure;BME280_temperature;BME280_humidity;BME280_pressure;Samples;Min_cycle;Max_cycle;Signal;HPM_P1;HPM_P2
2023/04/11 00:01:48;;;;;;;;;;;;;;;7.95;100.00;98815.00;4470246;32;19985;-67
2023/04/11 00:04:19;;;;;;;;;;;;;;;8.00;100.00;98808.47;4470556;32;20051;-67
2023/04/11 00:06:47;;;;;;;;;;;;;;;8.02;100.00;98815.34;4470238;32;20002;-67
2023/04/11 00:09:15;;;;;;;;;;;;;;;7.98;100.00;98807.75;4470090;32;19960;-67
2023/04/11 00:11:43;;;;;;;;;;;;;;;7.93;100.00;98802.09;4470256;32;19980;-67
2023/04/11 00:14:11;;;;;;;;;;;;;;;7.87;100.00;98805.13;4470470;32;19992;-67
2023/04/11 00:16:40;;;;;;;;;;;;;;;7.83;100.00;98801.12;4470555;32;20000;-67
2023/04/11 00:19:08;;;;;;;;;;;;;;;7.84;100.00;98796.75;4469066;32;20047;-67
2023/04/11 00:21:38;;;;;;;;;;;;;;;7.73;100.00;98790.56;4470370;32;20430;-67
2023/04/11 00:24:07;;;;;;;;;;;;;;;7.56;100.00;98783.22;4470406;32;20321;-67
2023/04/11 00:26:34;;;;;;;;;;;;;;;7.50;100.00;98784.53;4470523;32;20028;-67
2023/04/11 00:29:01;;;;;;;;;;;;;;;7.49;100.00;98780.25;4469994;32;19986;-67
2023/04/11 00:31:29;;;;;;;;;;;;;;;7.44;100.00;98779.78;4470189;32;20027;-67
2023/04/11 00:33:57;;;;;;;;;;;;;;;7.41;100.00;98782.63;4470190;32;19984;-67
2023/04/11 00:36:25;;;;;;;;;;;;;;;7.38;100.00;98780.25;4470158;32;19972;-67
2023/04/11 00:38:53;;;;;;;;;;;;;;;7.39;100.00;98777.53;4469817;32;20449;-67
2023/04/11 00:41:23;;;;;;;;;;;;;;;7.45;100.00;98774.44;4469866;32;20003;-67
2023/04/11 00:43:50;;;;;;;;;;;;;;;7.51;100.00;98780.97;4470164;32;20056;-67
2023/04/11 00:46:17;;;;;;;;;;;;;;;7.54;100.00;98774.69;4470087;32;19968;-67
2023/04/11 00:48:45;;;;;;;;;;;;;;;7.49;100.00;98772.41;4468710;32;19987;-67
2023/04/11 00:51:13;;;;;;;;;;;;;;;7.45;100.00;98771.03;4470126;32;20384;-67
2023/04/11 00:53:40;;;;;;;;;;;;;;;7.40;100.00;98778.34;4469931;32;19980;-67
2023/04/11 00:56:08;;;;;;;;;;;;;;;7.33;100.00;98769.31;4469899;32;20035;-67
2023/04/11 00:58:37;;;;;;;;;;;;;;;7.27;100.00;98768.84;4469777;32;20389;-67
2023/04/11 01:01:08;;;;;;;;;;;;;;;7.25;100.00;98770.75;4469856;32;20105;-67
2023/04/11 01:03:37;;;;;;;;;;;;;;;7.24;100.00;98774.28;4470175;32;19995;-67
2023/04/11 01:06:05;;;;;;;;;;;;;;;7.18;100.00;98766.94;4469907;32;20379;-67
2023/04/11 01:08:33;;;;;;;;;;;;;;;7.16;100.00;98766.25;4468432;32;19983;-67
2023/04/11 01:11:01;;;;;;;;;;;;;;;7.09;100.00;98760.66;4469663;32;19999;-67
2023/04/11 01:13:29;;;;;;;;;;;;;;;7.01;100.00;98764.75;4468635;32;19988;-67
2023/04/11 01:15:56;;;;;;;;;;;;;;;6.86;100.00;98762.38;4469995;32;19992;-67
2023/04/11 01:18:24;;;;;;;;;;;;;;;6.78;100.00;98762.09;4468422;32;19992;-67
2023/04/11 01:20:51;;;;;;;;;;;;;;;6.69;100.00;98757.56;4468511;32;20348;-67
2023/04/11 01:23:22;;;;;;;;;;;;;;;6.54;100.00;98764.72;4469710;32;19994;-67
2023/04/11 01:25:50;;;;;;;;;;;;;;;6.41;100.00;98759.59;4468755;32;19972;-67
2023/04/11 01:28:20;;;;;;;;;;;;;;;6.34;100.00;98747.94;4469584;32;20040;-66
2023/04/11 01:30:47;;;;;;;;;;;;;;;6.30;100.00;98759.50;4469242;32;19991;-67
2023/04/11 01:33:15;;;;;;;;;;;;;;;6.27;100.00;98751.94;4469806;32;20360;-67
2023/04/11 01:35:43;;;;;;;;;;;;;;;6.21;100.00;98740.22;4468493;32;19976;-67
2023/04/11 01:38:10;;;;;;;;;;;;;;;6.20;100.00;98748.94;4469414;32;20033;-67
2023/04/11 01:40:38;;;;;;;;;;;;;;;6.45;100.00;98745.41;4468331;32;19971;-67
2023/04/11 01:43:07;;;;;;;;;;;;;;;6.60;100.00;98740.88;4468585;32;20035;-67
2023/04/11 01:45:34;;;;;;;;;;;;;;;6.57;100.00;98736.72;4468208;32;20043;-67
2023/04/11 01:48:07;;;;;;;;;;;;;;;6.48;100.00;98736.53;4469511;32;19972;-67
2023/04/11 01:50:35;;;;;;;;;;;;;;;6.47;100.00;98734.91;4469458;32;19984;-67
2023/04/11 01:53:03;;;;;;;;;;;;;;;6.35;100.00;98734.81;4469428;32;20022;-67
2023/04/11 01:55:30;;;;;;;;;;;;;;;6.21;100.00;98740.22;4469314;32;20029;-67
2023/04/11 01:57:58;;;;;;;;;;;;;;;6.10;100.00;98742.72;4469282;32;19980;-67
2023/04/11 02:00:25;;;;;;;;;;;;;;;5.97;100.00;98737.59;4469356;32;19979;-67
2023/04/11 02:02:52;;;;;;;;;;;;;;;5.94;100.00;98742.97;4467923;32;19991;-67
2023/04/11 02:05:20;;;;;;;;;;;;;;;5.85;100.00;98732.25;4453991;32;20003;-67
2023/04/11 02:07:48;;;;;;;;;;;;;;;5.84;100.00;98735.81;4453403;32;20003;-67
2023/04/11 02:10:16;;;;;;;;;;;;;;;5.80;100.00;98736.97;4453736;32;20001;-67
2023/04/11 02:12:43;;;;;;;;;;;;;;;5.73;100.00;98737.50;4466321;32;20269;-67
2023/04/11 02:15:12;;;;;;;;;;;;;;;5.68;100.00;98730.03;4468841;32;19988;-67
2023/04/11 02:17:44;;;;;;;;;;;;;;;5.69;100.00;98729.94;4469063;32;19990;-67
2023/04/11 02:20:12;;;;;;;;;;;;;;;5.66;100.00;98734.50;4468988;32;20354;-67
2023/04/11 02:22:40;;;;;;;;;;;;;;;5.67;100.00;98724.00;4469144;32;20416;-67
2023/04/11 02:25:07;;;;;;;;;;;;;;;5.69;100.00;98726.47;4468907;32;19984;-67
2023/04/11 02:27:34;;;;;;;;;;;;;;;5.58;100.00;98723.81;4468957;32;20353;-67
2023/04/11 02:30:04;;;;;;;;;;;;;;;5.60;100.00;98724.53;4468957;32;19988;-67
2023/04/11 02:32:36;;;;;;;;;;;;;;;5.73;100.00;98724.50;4468868;32;19984;-67
2023/04/11 02:35:04;;;;;;;;;;;;;;;5.72;100.00;98720.25;4468781;32;20751;-67
2023/04/11 02:37:31;;;;;;;;;;;;;;;5.67;100.00;98717.97;4468824;32;19994;-67
2023/04/11 02:40:00;;;;;;;;;;;;;;;5.57;100.00;98716.94;4468529;32;20366;-67
2023/04/11 02:42:28;;;;;;;;;;;;;;;5.64;100.00;98707.78;4469792;32;20330;-67
2023/04/11 02:44:55;;;;;;;;;;;;;;;5.66;100.00;98708.50;4470857;32;19976;-67
2023/04/11 02:47:24;;;;;;;;;;;;;;;5.67;100.00;98708.41;4471018;32;20440;-67
2023/04/11 02:49:53;;;;;;;;;;;;;;;5.70;100.00;98712.56;4471018;32;20467;-67
2023/04/11 02:52:22;;;;;;;;;;;;;;;5.79;100.00;98705.87;4470754;32;20063;-67
2023/04/11 02:54:50;;;;;;;;;;;;;;;5.85;100.00;98715.84;4470767;32;20030;-67
2023/04/11 02:57:17;;;;;;;;;;;;;;;5.83;100.00;98710.75;4470691;32;20039;-67
2023/04/11 02:59:45;;;;;;;;;;;;;;;5.83;100.00;98723.75;4470932;32;19985;-67
2023/04/11 03:02:14;;;;;;;;;;;;;;;5.89;100.00;98714.69;4471090;32;20002;-67
2023/04/11 03:04:41;;;;;;;;;;;;;;;5.94;100.00;98720.41;4470690;32;20059;-67
2023/04/11 03:07:09;;;;;;;;;;;;;;;5.98;100.00;98721.03;4470968;32;20025;-67
2023/04/11 03:09:36;;;;;;;;;;;;;;;5.94;100.00;98714.38;4470352;32;20236;-67
2023/04/11 03:12:04;;;;;;;;;;;;;;;5.85;100.00;98716.66;4471020;32;20036;-67
2023/04/11 03:14:33;;;;;;;;;;;;;;;5.88;100.00;98715.63;4470841;32;19976;-67
2023/04/11 03:17:00;;;;;;;;;;;;;;;5.92;100.00;98716.22;4470941;32;19964;-67
2023/04/11 03:19:30;;;;;;;;;;;;;;;5.92;100.00;98716.22;4471007;32;19988;-67
2023/04/11 03:21:59;;;;;;;;;;;;;;;5.93;100.00;98717.91;4471106;32;19999;-67
2023/04/11 03:24:26;;;;;;;;;;;;;;;5.97;100.00;98717.59;4470875;32;20063;-67
2023/04/11 03:26:56;;;;;;;;;;;;;;;6.04;100.00;98715.38;4470799;32;20078;-67
2023/04/11 03:29:24;;;;;;;;;;;;;;;6.13;100.00;98709.56;4470667;32;19980;-67
2023/04/11 03:31:51;;;;;;;;;;;;;;;6.20;100.00;98709.94;4470841;32;20007;-67
2023/04/11 03:34:20;;;;;;;;;;;;;;;6.28;100.00;98711.97;4470817;32;19980;-67
2023/04/11 03:36:48;;;;;;;;;;;;;;;6.25;100.00;98707.81;4470586;32;19980;-67
2023/04/11 03:39:16;;;;;;;;;;;;;;;6.32;100.00;98698.63;4470534;32;20007;-67
2023/04/11 03:41:44;;;;;;;;;;;;;;;6.37;100.00;98698.28;4470560;32;19991;-67
2023/04/11 03:44:12;;;;;;;;;;;;;;;6.40;100.00;98700.66;4470754;32;20093;-67
2023/04/11 03:46:41;;;;;;;;;;;;;;;6.34;100.00;98698.50;4470237;32;19983;-67
2023/04/11 03:49:09;;;;;;;;;;;;;;;6.26;100.00;98693.06;4470583;32;20082;-67
2023/04/11 03:51:37;;;;;;;;;;;;;;;6.16;100.00;98688.53;4470478;32;20032;-67
2023/04/11 03:54:04;;;;;;;;;;;;;;;6.03;100.00;98687.75;4470192;32;20033;-67
2023/04/11 03:56:32;;;;;;;;;;;;;;;5.89;100.00;98695.66;4470675;32;19988;-67
2023/04/11 03:59:00;;;;;;;;;;;;;;;5.76;100.00;98693.09;4469268;32;19987;-66
2023/04/11 04:01:27;;;;;;;;;;;;;;;5.72;100.00;98684.69;4470711;32;19984;-67
2023/04/11 04:03:59;;;;;;;;;;;;;;;5.63;100.00;98687.94;4470715;32;19999;-67
2023/04/11 04:06:28;;;;;;;;;;;;;;;5.74;100.00;98676.78;4470491;32;20035;-67
2023/04/11 04:08:56;;;;;;;;;;;;;;;5.93;100.00;98677.13;4470613;32;19980;-67
2023/04/11 04:11:23;;;;;;;;;;;;;;;5.97;100.00;98677.78;4470330;32;19988;-67
2023/04/11 04:13:54;;;;;;;;;;;;;;;6.08;100.00;98674.41;4470566;32;20032;-67
2023/04/11 04:16:21;;;;;;;;;;;;;;;6.11;100.00;98680.19;4470220;32;19980;-66
2023/04/11 04:18:50;;;;;;;;;;;;;;;6.31;100.00;98676.16;4469021;32;19995;-67
2023/04/11 04:21:18;;;;;;;;;;;;;;;6.43;100.00;98673.59;4470487;32;20653;-67
2023/04/11 04:23:46;;;;;;;;;;;;;;;6.52;100.00;98676.34;4469253;32;19988;-66
2023/04/11 04:26:16;;;;;;;;;;;;;;;6.42;100.00;98682.34;4469983;32;20379;-66
2023/04/11 04:28:44;;;;;;;;;;;;;;;6.41;100.00;98681.53;4469625;32;20012;-66
2023/04/11 04:31:14;;;;;;;;;;;;;;;6.43;100.00;98677.03;4469355;32;20466;-66
2023/04/11 04:33:42;;;;;;;;;;;;;;;6.36;100.00;98681.03;4468527;32;20508;-66
2023/04/11 04:36:12;;;;;;;;;;;;;;;6.21;100.00;98677.78;4469576;32;20433;-66
2023/04/11 04:38:40;;;;;;;;;;;;;;;6.26;100.00;98667.84;4469434;32;19996;-66
2023/04/11 04:41:14;;;;;;;;;;;;;;;6.38;100.00;98671.34;4469553;32;19984;-66
2023/04/11 04:43:42;;;;;;;;;;;;;;;6.55;100.00;98673.50;4470231;32;19975;-67
2023/04/11 04:46:10;;;;;;;;;;;;;;;6.70;100.00;98678.53;4470288;32;19973;-66
2023/04/11 04:48:38;;;;;;;;;;;;;;;6.87;100.00;98672.03;4470159;32;20013;-67
2023/04/11 04:51:05;;;;;;;;;;;;;;;7.02;100.00;98685.69;4470066;32;20044;-67
2023/04/11 04:53:37;;;;;;;;;;;;;;;7.17;100.00;98676.69;4470095;32;19982;-67
2023/04/11 04:56:05;;;;;;;;;;;;;;;7.42;100.00;98680.03;4469930;32;20468;-67
2023/04/11 04:58:33;;;;;;;;;;;;;;;7.52;100.00;98674.91;4469953;32;19994;-67
2023/04/11 05:01:01;;;;;;;;;;;;;;;7.59;100.00;98663.06;4468903;32;20044;-67
2023/04/11 05:03:33;;;;;;;;;;;;;;;7.59;100.00;98666.50;4469873;32;19997;-67
2023/04/11 05:06:01;;;;;;;;;;;;;;;7.61;100.00;98669.78;4472972;32;19980;-67
2023/04/11 05:08:29;;;;;;;;;;;;;;;7.82;100.00;98674.28;4477850;32;20003;-67
2023/04/11 05:10:56;;;;;;;;;;;;;;;7.93;100.00;98669.06;4483862;31;19995;-67
2023/04/11 05:13:25;;;;;;;;;;;;;;;7.98;100.00;98666.06;4473162;32;20013;-67
2023/04/11 05:15:53;;;;;;;;;;;;;;;8.23;100.00;98671.91;4469002;32;20344;-65
2023/04/11 05:18:21;;;;;;;;;;;;;;;8.45;100.00;98671.03;4470012;32;20081;-67
2023/04/11 05:20:49;;;;;;;;;;;;;;;8.73;100.00;98659.09;4469964;32;20045;-67
2023/04/11 05:23:18;;;;;;;;;;;;;;;9.10;100.00;98665.63;4470014;32;19995;-67
2023/04/11 05:25:46;;;;;;;;;;;;;;;9.50;100.00;98663.03;4484196;32;20273;-67
2023/04/11 05:28:14;;;;;;;;;;;;;;;9.74;100.00;98670.53;4482950;32;19980;-67
2023/04/11 05:30:41;;;;;;;;;;;;;;;10.01;100.00;98671.69;4485319;31;20416;-68
2023/04/11 05:33:11;;;;;;;;;;;;;;;10.27;100.00;98665.94;4485132;31;20009;-67
2023/04/11 05:35:40;;;;;;;;;;;;;;;10.48;100.00;98669.25;4478374;31;19996;-66
2023/04/11 05:38:08;;;;;;;;;;;;;;;10.77;100.00;98671.03;4484576;31;20690;-67
2023/04/11 05:40:36;;;;;;;;;;;;;;;11.06;100.00;98675.37;4484682;32;19980;-68
2023/04/11 05:43:04;;;;;;;;;;;;;;;11.30;100.00;98669.63;4484487;32;20386;-68
2023/04/11 05:45:31;;;;;;;;;;;;;;;11.56;100.00;98673.41;4484608;31;19991;-66
2023/04/11 05:47:58;;;;;;;;;;;;;;;11.79;100.00;98669.38;4483636;31;19997;-67
2023/04/11 05:50:26;;;;;;;;;;;;;;;11.97;100.00;98661.56;4459497;32;20000;-67
2023/04/11 05:52:53;;;;;;;;;;;;;;;12.21;100.00;98653.09;4464450;31;20063;-67
2023/04/11 05:55:20;;;;;;;;;;;;;;;12.33;100.00;98650.25;4468001;32;20000;-68
2023/04/11 05:57:48;;;;;;;;;;;;;;;12.30;100.00;98647.94;4465251;31;20048;-68
2023/04/11 06:00:16;;;;;;;;;;;;;;;12.21;100.00;98647.84;4468448;32;20028;-68
2023/04/11 06:02:43;;;;;;;;;;;;;;;12.13;100.00;98645.16;4466108;32;19972;-67
2023/04/11 06:05:11;;;;;;;;;;;;;;;12.09;100.00;98638.53;4464751;32;20007;-67
2023/04/11 06:07:38;;;;;;;;;;;;;;;12.24;100.00;98642.28;4466751;32;19983;-66
2023/04/11 06:10:06;;;;;;;;;;;;;;;12.34;100.00;98639.59;4464928;32;20023;-67
2023/04/11 06:12:33;;;;;;;;;;;;;;;12.44;100.00;98631.63;4467500;32;20476;-66
2023/04/11 06:15:01;;;;;;;;;;;;;;;12.51;100.00;98643.16;4466536;32;20014;-67
2023/04/11 06:17:28;;;;;;;;;;;;;;;12.57;100.00;98636.50;4469138;32;20019;-68
2023/04/11 06:19:55;;;;;;;;;;;;;;;12.59;100.00;98632.72;4466662;32;20330;-67
2023/04/11 06:22:23;;;;;;;;;;;;;;;12.71;100.00;98633.28;4468519;32;20453;-68
2023/04/11 06:24:51;;;;;;;;;;;;;;;12.72;100.00;98626.25;4469051;32;20025;-67
2023/04/11 06:27:18;;;;;;;;;;;;;;;12.84;100.00;98627.63;4469718;32;20025;-67
2023/04/11 06:29:46;;;;;;;;;;;;;;;12.91;100.00;98630.47;4468184;32;19996;-67
2023/04/11 06:32:13;;;;;;;;;;;;;;;12.98;100.00;98625.41;4468595;32;20330;-67
2023/04/11 06:34:40;;;;;;;;;;;;;;;12.76;100.00;98630.19;4467281;32;19987;-65
2023/04/11 06:37:08;;;;;;;;;;;;;;;12.94;100.00;98627.50;4466677;32;20029;-66
2023/04/11 06:39:36;;;;;;;;;;;;;;;12.91;100.00;98615.53;4469546;32;20077;-65
2023/04/11 06:42:03;;;;;;;;;;;;;;;12.86;100.00;98630.09;4470322;32;19975;-65
2023/04/11 06:44:31;;;;;;;;;;;;;;;13.00;100.00;98626.06;4467896;32;20686;-66
2023/04/11 06:46:59;;;;;;;;;;;;;;;13.06;100.00;98628.87;4467983;32;20686;-65
2023/04/11 06:49:30;;;;;;;;;;;;;;;13.11;100.00;98633.69;4468210;32;19985;-65
2023/04/11 06:51:58;;;;;;;;;;;;;;;12.95;100.00;98629.97;4468360;32;19994;-65
2023/04/11 06:54:25;;;;;;;;;;;;;;;12.82;100.00;98634.00;4467663;32;20056;-64
2023/04/11 06:56:52;;;;;;;;;;;;;;;12.78;100.00;98623.00;4467992;32;20007;-65
2023/04/11 06:59:20;;;;;;;;;;;;;;;12.82;100.00;98628.75;4466026;32;20000;-65
2023/04/11 07:01:48;;;;;;;;;;;;;;;13.12;100.00;98619.56;4467842;32;20055;-66
2023/04/11 07:04:16;;;;;;;;;;;;;;;13.42;100.00;98620.87;4471096;32;20470;-65
2023/04/11 07:06:44;;;;;;;;;;;;;;;13.65;100.00;98625.53;4468011;32;20015;-65
2023/04/11 07:09:12;;;;;;;;;;;;;;;13.89;100.00;98627.41;4467420;32;19984;-66
2023/04/11 07:11:39;;;;;;;;;;;;;;;13.99;100.00;98611.47;4468059;32;21942;-65
2023/04/11 07:14:06;;;;;;;;;;;;;;;14.43;100.00;98605.03;4468297;32;20338;-66
2023/04/11 07:16:34;;;;;;;;;;;;;;;14.90;100.00;98609.62;4467804;32;20212;-66
2023/04/11 07:19:02;;;;;;;;;;;;;;;15.32;100.00;98613.78;4468830;32;20026;-66
2023/04/11 07:21:31;;;;;;;;;;;;;;;15.61;95.43;98612.34;4467473;32;20040;-66
2023/04/11 07:23:59;;;;;;;;;;;;;;;15.65;90.48;98616.25;4468737;32;20031;-64
2023/04/11 07:26:30;;;;;;;;;;;;;;;15.54;86.94;98617.47;4468224;32;20015;-65
2023/04/11 07:28:59;;;;;;;;;;;;;;;15.69;87.52;98614.09;4468270;32;20022;-66
2023/04/11 07:31:26;;;;;;;;;;;;;;;15.48;87.76;98612.06;4467886;32;20383;-65
2023/04/11 07:33:54;;;;;;;;;;;;;;;15.29;89.14;98606.22;4467212;32;19984;-66
2023/04/11 07:36:22;;;;;;;;;;;;;;;15.00;90.92;98598.87;4467909;32;19977;-65
2023/04/11 07:38:51;;;;;;;;;;;;;;;14.90;92.16;98612.28;4468029;32;19992;-66
2023/04/11 07:41:18;;;;;;;;;;;;;;;15.07;92.51;98611.22;4467280;32;20176;-65
2023/04/11 07:43:45;;;;;;;;;;;;;;;14.93;90.07;98624.28;4469639;32;20369;-66
2023/04/11 07:46:13;;;;;;;;;;;;;;;14.91;88.62;98621.81;4468236;32;20026;-65
2023/04/11 07:48:41;;;;;;;;;;;;;;;14.80;88.33;98619.53;4468002;32;19984;-66
2023/04/11 07:51:09;;;;;;;;;;;;;;;14.73;88.15;98604.41;4468313;32;19976;-65
2023/04/11 07:53:36;;;;;;;;;;;;;;;15.16;89.50;98604.09;4484361;32;19992;-65
2023/04/11 07:56:04;;;;;;;;;;;;;;;15.33;90.56;98598.75;4485611;31;19999;-65
2023/04/11 07:58:31;;;;;;;;;;;;;;;15.36;91.90;98608.97;4485864;32;20000;-65
2023/04/11 08:00:58;;;;;;;;;;;;;;;15.52;88.57;98608.06;4485876;31;20047;-64
2023/04/11 08:03:26;;;;;;;;;;;;;;;15.72;87.87;98605.84;4485677;31;19991;-65
2023/04/11 08:05:54;;;;;;;;;;;;;;;15.86;83.20;98599.00;4485731;31;20047;-65
2023/04/11 08:08:22;;;;;;;;;;;;;;;15.96;84.80;98600.41;4485827;31;20012;-65
2023/04/11 08:10:49;;;;;;;;;;;;;;;15.98;87.74;98596.78;4484338;31;20321;-64
2023/04/11 08:13:18;;;;;;;;;;;;;;;15.96;87.44;98589.03;4470097;32;20028;-65
2023/04/11 08:15:46;;;;;;;;;;;;;;;15.90;86.69;98593.19;4468245;32;19988;-63
2023/04/11 08:18:15;;;;;;;;;;;;;;;15.86;85.14;98583.97;4481889;32;19983;-65
2023/04/11 08:20:42;;;;;;;;;;;;;;;16.08;86.79;98577.03;4485203;31;20462;-64
2023/04/11 08:23:10;;;;;;;;;;;;;;;15.87;82.47;98584.81;4485900;31;20047;-64
2023/04/11 08:25:38;;;;;;;;;;;;;;;15.93;87.66;98569.06;4485761;31;20003;-64
2023/04/11 08:28:05;;;;;;;;;;;;;;;16.22;88.32;98558.78;4484914;31;20325;-65
2023/04/11 08:30:32;;;;;;;;;;;;;;;16.42;85.80;98556.44;4479001;31;20035;-64
2023/04/11 08:33:00;;;;;;;;;;;;;;;16.60;87.18;98561.37;4469649;32;20041;-63
2023/04/11 08:35:27;;;;;;;;;;;;;;;16.58;82.82;98548.34;4484972;31;20040;-65
2023/04/11 08:37:55;;;;;;;;;;;;;;;16.55;82.44;98548.72;4484189;31;20056;-65
2023/04/11 08:40:22;;;;;;;;;;;;;;;16.75;82.87;98546.34;4483932;31;20007;-64
2023/04/11 08:42:59;;;;;;;;;;;;;;;16.76;85.24;98537.41;4485320;31;19987;-65
2023/04/11 08:45:27;;;;;;;;;;;;;;;16.59;83.03;98536.75;4475768;31;19999;-65
2023/04/11 08:47:54;;;;;;;;;;;;;;;16.29;84.68;98530.59;4483940;31;19988;-65
2023/04/11 08:50:22;;;;;;;;;;;;;;;15.84;85.07;98534.97;4483037;31;20003;-65
2023/04/11 08:52:49;;;;;;;;;;;;;;;15.08;87.29;98527.63;4484580;31;20427;-65
2023/04/11 08:55:17;;;;;;;;;;;;;;;15.01;90.15;98516.94;4483846;32;19998;-64
2023/04/11 08:57:44;;;;;;;;;;;;;;;15.29;86.68;98513.84;4484861;31;19984;-65
2023/04/11 09:00:17;;;;;;;;;;;;;;;15.56;88.65;98515.16;4484849;31;20002;-65
2023/04/11 09:02:55;;;;;;;;;;;;;;;15.73;84.10;98513.22;4484993;31;19984;-65
2023/04/11 09:05:27;;;;;;;;;;;;;;;15.77;86.72;98517.16;4485763;31;19984;-65
2023/04/11 09:07:56;;;;;;;;;;;;;;;16.13;86.40;98513.09;4485168;31;20048;-65
2023/04/11 09:10:24;;;;;;;;;;;;;;;16.16;86.92;98510.09;4485564;31;19991;-65
2023/04/11 09:12:52;;;;;;;;;;;;;;;15.65;89.15;98504.53;4483720;31;19983;-64
2023/04/11 09:15:23;;;;;;;;;;;;;;;15.99;92.05;98501.50;4474885;31;20133;-65
2023/04/11 09:17:51;;;;;;;;;;;;;;;16.28;90.46;98497.25;4485697;31;20011;-65
2023/04/11 09:20:25;;;;;;;;;;;;;;;16.62;84.10;98496.75;4484569;31;19983;-65
2023/04/11 09:22:52;;;;;;;;;;;;;;;16.52;79.05;98488.25;4484737;32;19971;-66
2023/04/11 09:25:21;;;;;;;;;;;;;;;16.55;76.74;98492.34;4485285;31;20377;-65
2023/04/11 09:27:50;;;;;;;;;;;;;;;16.55;80.20;98489.69;4485538;31;19975;-65
2023/04/11 09:30:21;;;;;;;;;;;;;;;16.55;79.21;98487.03;4480082;32;20047;-64
2023/04/11 09:32:49;;;;;;;;;;;;;;;16.59;77.75;98483.03;4475233;32;20028;-64
2023/04/11 09:35:21;;;;;;;;;;;;;;;16.60;79.13;98484.69;4484747;31;20011;-64
2023/04/11 09:37:52;;;;;;;;;;;;;;;16.44;75.48;98489.16;4485380;31;19994;-65
2023/04/11 09:40:20;;;;;;;;;;;;;;;16.50;78.85;98490.22;4470845;31;20472;-65
2023/04/11 09:42:54;;;;;;;;;;;;;;;16.26;84.48;98486.88;4469586;32;19987;-65
2023/04/11 09:45:22;;;;;;;;;;;;;;;16.53;84.73;98483.78;4482368;32;20344;-65
2023/04/11 09:47:50;;;;;;;;;;;;;;;16.66;88.73;98470.72;4468139;32;19983;-65
2023/04/11 09:50:17;;;;;;;;;;;;;;;16.47;90.87;98462.34;4467694;32;20356;-65
2023/04/11 09:52:45;;;;;;;;;;;;;;;16.70;85.18;98469.37;4473469;32;20043;-65
2023/04/11 09:55:15;;;;;;;;;;;;;;;16.87;77.47;98459.44;4482532;31;20000;-65
2023/04/11 09:57:49;;;;;;;;;;;;;;;16.84;84.23;98452.63;4483185;32;20025;-67
2023/04/11 10:00:18;;;;;;;;;;;;;;;17.17;82.11;98449.59;4477231;31;20002;-68
2023/04/11 10:02:48;;;;;;;;;;;;;;;17.23;80.61;98453.31;4480653;32;20007;-67
2023/04/11 10:05:16;;;;;;;;;;;;;;;17.10;79.18;98458.47;4475380;32;19992;-67
2023/04/11 10:07:51;;;;;;;;;;;;;;;17.10;77.61;98455.81;4477892;32;19984;-67
2023/04/11 10:10:20;;;;;;;;;;;;;;;17.08;80.60;98458.66;4484069;31;20024;-67
2023/04/11 10:12:47;;;;;;;;;;;;;;;17.41;71.83;98444.94;4469915;31;19989;-67
2023/04/11 10:15:15;;;;;;;;;;;;;;;17.81;75.68;98447.94;4467523;32;20497;-67
2023/04/11 10:18:04;;;;;;;;;;;;;;;17.88;70.12;98440.88;4469019;32;19990;-67
2023/04/11 10:20:34;;;;;;;;;;;;;;;17.81;70.76;98433.88;4405035;32;20544;-67
2023/04/11 10:23:02;;;;;;;;;;;;;;;17.46;72.20;98429.31;4404653;32;20032;-67
2023/04/11 10:25:29;;;;;;;;;;;;;;;17.59;71.53;98425.13;4403557;32;20409;-67
2023/04/11 10:28:00;;;;;;;;;;;;;;;17.43;72.41;98416.44;4404475;32;20008;-67
2023/04/11 10:30:54;;;;;;;;;;;;;;;17.34;75.17;98405.16;4403654;32;20013;-67
2023/04/11 10:33:22;;;;;;;;;;;;;;;17.40;74.78;98413.38;4402294;32;19990;-67
2023/04/11 10:35:58;;;;;;;;;;;;;;;17.29;74.37;98402.25;4392465;32;20117;-67
2023/04/11 10:38:47;;;;;;;;;;;;;;;17.05;76.64;98398.16;4404810;32;20415;-67
2023/04/11 10:41:21;;;;;;;;;;;;;;;17.11;77.66;98400.06;4404233;32;20028;-67
2023/04/11 10:43:49;;;;;;;;;;;;;;;17.27;81.91;98391.03;4404700;32;20416;-67
2023/04/11 10:46:17;;;;;;;;;;;;;;;17.53;80.89;98390.47;4404012;32;20005;-67
2023/04/11 10:49:01;;;;;;;;;;;;;;;17.75;79.78;98387.75;4404405;32;20489;-67
2023/04/11 10:51:30;;;;;;;;;;;;;;;17.98;75.60;98384.87;4404483;32;20028;-67
2023/04/11 10:53:58;;;;;;;;;;;;;;;17.91;69.79;98381.38;4404360;32;20418;-67
2023/04/11 10:56:41;;;;;;;;;;;;;;;18.11;74.66;98372.72;4404371;32;19989;-67
2023/04/11 10:59:28;;;;;;;;;;;;;;;18.43;66.37;98384.53;4468534;32;20000;-65
2023/04/11 11:01:55;;;;;;;;;;;;;;;18.36;58.72;98381.03;4468622;32;20506;-65
2023/04/11 11:04:33;;;;;;;;;;;;;;;18.44;64.21;98375.56;4470160;32;20371;-65
2023/04/11 11:07:02;;;;;;;;;;;;;;;18.26;57.82;98374.25;4470239;32;20055;-65
2023/04/11 11:09:30;;;;;;;;;;;;;;;18.06;64.25;98373.31;4469748;32;20360;-65
2023/04/11 11:12:10;;;;;;;;;;;;;;;18.18;60.79;98363.81;4470442;32;19999;-65
2023/04/11 11:14:39;;;;;;;;;;;;;;;18.27;63.94;98359.97;4469749;32;19983;-65
2023/04/11 11:17:06;;;;;;;;;;;;;;;18.58;63.83;98355.22;4467118;32;20048;-65
2023/04/11 11:19:36;;;;;;;;;;;;;;;18.19;57.31;98351.38;4469355;32;20002;-65
2023/04/11 11:22:05;;;;;;;;;;;;;;;18.09;57.05;98341.09;4469002;32;20020;-65
2023/04/11 11:24:32;;;;;;;;;;;;;;;18.53;60.96;98339.87;4469217;32;20311;-65
2023/04/11 11:27:00;;;;;;;;;;;;;;;18.80;58.38;98338.13;4470511;32;20048;-65
2023/04/11 11:29:33;;;;;;;;;;;;;;;18.46;53.75;98335.56;4470542;32;20329;-65
2023/04/11 11:32:04;;;;;;;;;;;;;;;18.44;57.08;98330.47;4470588;32;19990;-65
2023/04/11 11:34:32;;;;;;;;;;;;;;;18.59;57.95;98317.03;4470411;32;20000;-65
2023/04/11 11:37:00;;;;;;;;;;;;;;;19.14;60.53;98319.63;4470493;32;20318;-65
2023/04/11 11:39:28;;;;;;;;;;;;;;;18.91;54.76;98319.97;4468710;32;20383;-65
2023/04/11 11:41:55;;;;;;;;;;;;;;;18.81;52.64;98320.34;4468724;32;19979;-65
2023/04/11 11:44:26;;;;;;;;;;;;;;;18.89;54.85;98319.38;4469383;32;20051;-65
2023/04/11 11:47:11;;;;;;;;;;;;;;;18.94;54.82;98315.09;4470422;32;19988;-65
2023/04/11 11:49:42;;;;;;;;;;;;;;;19.17;53.82;98321.88;4470095;32;20039;-65
2023/04/11 11:52:10;;;;;;;;;;;;;;;19.14;49.76;98323.09;4469807;32;20632;-65
2023/04/11 11:54:45;;;;;;;;;;;;;;;19.28;50.12;98318.59;4470339;32;19989;-65
2023/04/11 11:57:21;;;;;;;;;;;;;;;19.24;50.78;98321.84;4470383;32;19984;-65
2023/04/11 11:59:52;;;;;;;;;;;;;;;18.85;51.36;98318.09;4470342;32;20029;-65
2023/04/11 12:02:26;;;;;;;;;;;;;;;19.23;51.84;98312.25;4469955;32;20346;-65
2023/04/11 12:04:56;;;;;;;;;;;;;;;19.21;51.43;98317.75;4470202;32;20039;-65
2023/04/11 12:07:24;;;;;;;;;;;;;;;19.32;52.15;98308.37;4468874;32;20454;-65
2023/04/11 12:10:08;;;;;;;;;;;;;;;19.43;52.92;98315.72;4470235;32;19991;-65
2023/04/11 12:12:37;;;;;;;;;;;;;;;19.43;52.36;98312.25;4470282;32;20011;-65
2023/04/11 12:15:10;;;;;;;;;;;;;;;19.95;54.48;98313.19;4469876;32;19976;-67
2023/04/11 12:17:38;;;;;;;;;;;;;;;19.85;52.55;98312.84;4470149;32;19986;-67
2023/04/11 12:20:06;;;;;;;;;;;;;;;19.83;51.94;98312.22;4469730;32;19994;-67
2023/04/11 12:22:34;;;;;;;;;;;;;;;19.74;50.76;98316.91;4470138;32;20026;-67
2023/04/11 12:25:09;;;;;;;;;;;;;;;19.32;49.54;98309.19;4469883;32;19990;-67
2023/04/11 12:27:37;;;;;;;;;;;;;;;19.09;49.42;98314.09;4469413;32;19981;-67
2023/04/11 12:30:05;;;;;;;;;;;;;;;19.15;49.02;98302.66;4470071;32;19980;-67
2023/04/11 12:32:32;;;;;;;;;;;;;;;19.56;49.47;98298.12;4469887;32;19976;-67
2023/04/11 12:35:00;;;;;;;;;;;;;;;19.88;45.81;98299.13;4470354;32;20413;-66
2023/04/11 12:37:28;;;;;;;;;;;;;;;19.24;43.38;98296.13;4469867;32;20392;-65
2023/04/11 12:39:55;;;;;;;;;;;;;;;18.99;44.35;98295.09;4469534;32;20459;-65
2023/04/11 12:42:23;;;;;;;;;;;;;;;19.35;44.05;98291.22;4469283;32;20368;-65
2023/04/11 12:44:53;;;;;;;;;;;;;;;19.14;40.70;98280.59;4469887;32;19998;-65
2023/04/11 12:47:21;;;;;;;;;;;;;;;19.54;42.22;98279.75;4469595;32;19984;-65
2023/04/11 12:49:48;;;;;;;;;;;;;;;20.02;43.33;98274.12;4470352;32;20011;-65
2023/04/11 12:52:16;;;;;;;;;;;;;;;20.04;38.89;98276.56;4469870;32;20015;-65
2023/04/11 12:54:43;;;;;;;;;;;;;;;19.99;39.96;98277.19;4469885;32;19971;-65